createdAt,value
2023-05-14T00:01:58.528Z,101064.94
2023-05-14T00:05:59.940Z,101070.09
2023-05-14T00:10:01.500Z,101063.16
2023-05-14T00:14:02.969Z,101068.34
2023-05-14T00:18:04.507Z,101061.63
2023-05-14T00:22:05.883Z,101065.72
2023-05-14T00:26:07.209Z,101061.34
2023-05-14T00:30:08.914Z,101062.38
2023-05-14T00:34:10.281Z,101063.22
2023-05-14T00:38:16.766Z,101066.84
2023-05-14T00:42:18.082Z,101057.06
2023-05-14T00:46:19.800Z,101056.97
2023-05-14T00:50:21.593Z,101060.44
2023-05-14T00:54:23.156Z,101045.81
2023-05-14T00:58:25.667Z,101042.56
2023-05-14T01:02:27.118Z,101041.22
2023-05-14T01:06:31.319Z,101038.34
2023-05-14T01:10:42.200Z,101040.47
2023-05-14T01:15:05.440Z,101034.47
2023-05-14T01:19:18.655Z,101032.47
2023-05-14T01:23:20.160Z,101037.28
2023-05-14T01:27:52.875Z,101036.41
2023-05-14T01:31:57.337Z,101034.88
2023-05-14T01:35:58.881Z,101029.59
2023-05-14T01:40:01.090Z,101021.91
2023-05-14T01:44:02.437Z,101026.63
2023-05-14T01:48:05.262Z,101015.91
2023-05-14T01:52:08.405Z,101016.25
2023-05-14T01:56:09.740Z,101019.53
2023-05-14T02:00:11.528Z,101011.97
2023-05-14T02:04:12.799Z,101012.09
2023-05-14T02:08:14.193Z,101007.66
2023-05-14T02:12:15.645Z,100999.69
2023-05-14T02:16:16.997Z,101008.13
2023-05-14T02:20:18.404Z,101005.25
2023-05-14T02:24:19.753Z,101007.81
2023-05-14T02:28:21.204Z,101003.09
2023-05-14T02:32:22.689Z,101002.75
2023-05-14T02:36:24.071Z,100996.31
2023-05-14T02:40:25.763Z,100990.13
2023-05-14T02:44:27.270Z,100989.56
2023-05-14T02:48:28.658Z,100990.94
2023-05-14T02:52:30.081Z,100993.41
2023-05-14T02:56:31.449Z,100998.00
2023-05-14T03:00:32.788Z,101009.41
2023-05-14T03:04:34.476Z,101002.88
2023-05-14T03:08:35.997Z,101011.13
2023-05-14T03:12:37.376Z,101012.19
2023-05-14T03:16:40.100Z,101017.19
2023-05-14T03:20:42.203Z,101005.53
2023-05-14T03:24:43.594Z,101002.44
2023-05-14T03:28:44.901Z,101004.97
2023-05-14T03:32:46.472Z,100998.84
2023-05-14T03:36:47.877Z,100993.22
2023-05-14T03:40:49.153Z,100992.72
2023-05-14T03:44:50.496Z,100998.53
2023-05-14T03:48:51.821Z,100990.19
2023-05-14T03:52:53.525Z,100995.50
2023-05-14T03:56:54.792Z,101000.81
2023-05-14T04:00:56.197Z,101003.84
2023-05-14T04:04:57.602Z,100995.66
2023-05-14T04:08:58.977Z,100993.91
2023-05-14T04:13:00.401Z,100998.75
2023-05-14T04:17:01.706Z,100996.25
2023-05-14T04:21:03.080Z,100992.56
2023-05-14T04:25:04.725Z,100993.06
2023-05-14T04:29:06.124Z,100987.31
2023-05-14T04:33:07.482Z,100982.16
2023-05-14T04:37:09.020Z,100991.31
2023-05-14T04:41:10.461Z,100986.22
2023-05-14T04:45:13.475Z,100995.41
2023-05-14T04:49:14.862Z,100998.00
2023-05-14T04:53:16.239Z,101001.56
2023-05-14T04:57:17.672Z,101004.78
2023-05-14T05:01:19.077Z,100992.19
2023-05-14T05:05:20.669Z,100996.56
2023-05-14T05:09:22.080Z,101000.66
2023-05-14T05:13:23.390Z,101000.41
2023-05-14T05:17:25.410Z,100996.06
2023-05-14T05:21:26.873Z,100986.56
2023-05-14T05:25:28.220Z,100997.31
2023-05-14T05:29:29.634Z,101007.72
2023-05-14T05:33:32.113Z,100993.38
2023-05-14T05:37:33.490Z,101002.06
2023-05-14T05:41:34.786Z,100990.88
2023-05-14T05:45:36.198Z,100996.56
2023-05-14T05:49:37.651Z,100994.72
2023-05-14T05:53:39.007Z,101001.66
2023-05-14T05:57:40.412Z,101009.63
2023-05-14T06:01:43.451Z,101002.28
2023-05-14T06:05:45.035Z,100998.41
2023-05-14T06:09:46.531Z,101005.94
2023-05-14T06:13:47.868Z,101001.19
2023-05-14T06:17:49.272Z,101007.78
2023-05-14T06:21:50.578Z,101007.53
2023-05-14T06:25:52.540Z,101007.53
2023-05-14T06:29:53.849Z,101004.63
2023-05-14T06:33:55.226Z,101004.94
2023-05-14T06:37:56.569Z,101001.31
2023-05-14T06:41:57.841Z,101007.41
2023-05-14T06:45:59.152Z,101001.03
2023-05-14T06:51:09.172Z,100987.56
2023-05-14T06:55:10.600Z,100991.72
2023-05-14T06:59:12.129Z,100987.03
2023-05-14T07:03:13.573Z,100973.53
2023-05-14T07:07:18.184Z,100983.19
2023-05-14T07:11:19.531Z,100979.31
2023-05-14T07:15:21.172Z,100975.84
2023-05-14T07:19:22.581Z,100983.94
2023-05-14T07:23:23.945Z,100984.78
2023-05-14T07:27:25.542Z,100978.59
2023-05-14T07:31:27.060Z,100961.88
2023-05-14T07:35:28.528Z,100964.16
2023-05-14T07:39:29.841Z,100960.22
2023-05-14T07:43:31.576Z,100959.22
2023-05-14T07:47:33.298Z,100953.75
2023-05-14T07:51:34.764Z,100950.13
2023-05-14T07:55:36.647Z,100950.06
2023-05-14T07:59:38.030Z,100949.84
2023-05-14T08:03:40.013Z,100946.03
2023-05-14T08:07:41.468Z,100961.56
2023-05-14T08:11:42.833Z,100957.69
2023-05-14T08:15:44.230Z,100963.16
2023-05-14T08:19:45.619Z,100957.84
2023-05-14T08:23:46.941Z,100965.78
2023-05-14T08:27:48.242Z,100957.09
2023-05-14T08:31:49.845Z,100955.47
2023-05-14T08:35:54.540Z,100948.72
2023-05-14T08:39:56.171Z,100942.47
2023-05-14T08:44:12.223Z,100942.84
2023-05-14T08:48:16.765Z,100939.06
2023-05-14T08:52:20.148Z,100939.97
2023-05-14T08:56:22.698Z,100943.63
2023-05-14T09:00:24.980Z,100934.06
2023-05-14T09:04:27.913Z,100934.97
2023-05-14T09:08:29.456Z,100922.03
2023-05-14T09:12:31.259Z,100923.47
2023-05-14T09:16:32.889Z,100919.22
2023-05-14T09:20:34.454Z,100919.03
2023-05-14T09:24:36.092Z,100915.38
2023-05-14T09:28:43.936Z,100911.28
2023-05-14T09:32:46.090Z,100903.81
2023-05-14T09:36:47.471Z,100899.34
2023-05-14T09:40:48.755Z,100895.03
2023-05-14T09:44:53.498Z,100893.34
2023-05-14T09:48:55.959Z,100884.06
2023-05-14T09:52:58.808Z,100889.50
2023-05-14T09:57:00.349Z,100878.59
2023-05-14T10:01:02.608Z,100882.63
2023-05-14T10:05:06.390Z,100880.66
2023-05-14T10:09:13.602Z,100871.50
2023-05-14T10:13:22.263Z,100866.03
2023-05-14T10:17:30.658Z,100861.00
2023-05-14T10:21:36.452Z,100852.34
2023-05-14T10:25:38.176Z,100855.84
2023-05-14T10:29:39.564Z,100846.13
2023-05-14T10:33:50.191Z,100852.59
2023-05-14T10:37:51.808Z,100854.25
2023-05-14T10:41:53.424Z,100835.69
2023-05-14T10:45:55.782Z,100838.66
2023-05-14T10:50:03.383Z,100834.59
2023-05-14T10:54:08.204Z,100824.84
2023-05-14T10:58:10.908Z,100823.84
2023-05-14T11:02:32.955Z,100819.59
2023-05-14T11:06:35.637Z,100816.84
2023-05-14T11:10:38.850Z,100813.22
2023-05-14T11:14:41.439Z,100807.97
2023-05-14T11:18:42.781Z,100796.78
2023-05-14T11:22:45.660Z,100788.78
2023-05-14T11:26:47.088Z,100785.16
2023-05-14T11:30:49.674Z,100790.25
2023-05-14T11:34:51.372Z,100795.50
2023-05-14T11:38:52.965Z,100792.72
2023-05-14T11:42:54.495Z,100799.00
2023-05-14T11:46:57.088Z,100785.81
2023-05-14T11:50:58.449Z,100781.03
2023-05-14T11:54:59.782Z,100776.59
2023-05-14T11:59:01.199Z,100771.44
2023-05-14T12:03:02.720Z,100768.88
2023-05-14T12:07:12.551Z,100762.47
2023-05-14T12:11:13.914Z,100751.59
2023-05-14T12:15:16.885Z,100747.06
2023-05-14T12:19:21.230Z,100756.41
2023-05-14T12:23:33.198Z,100751.28
2023-05-14T12:27:37.279Z,100738.91
2023-05-14T12:31:45.678Z,100735.44
2023-05-14T12:35:47.119Z,100724.50
2023-05-14T12:39:48.540Z,100722.25
2023-05-14T12:43:49.903Z,100711.13
2023-05-14T12:47:51.277Z,100710.69
2023-05-14T12:52:03.186Z,100715.31
2023-05-14T12:56:14.577Z,100708.13
2023-05-14T13:00:16.210Z,100704.63
2023-05-14T13:04:17.754Z,100701.88
2023-05-14T13:08:21.423Z,100710.81
2023-05-14T13:12:23.696Z,100702.00
2023-05-14T13:16:27.838Z,100690.78
2023-05-14T13:20:30.983Z,100679.06
2023-05-14T13:24:32.293Z,100689.44
2023-05-14T13:28:33.867Z,100679.34
2023-05-14T13:32:35.481Z,100679.06
2023-05-14T13:36:39.561Z,100672.97
2023-05-14T13:40:40.914Z,100679.59
2023-05-14T13:44:42.238Z,100673.19
2023-05-14T13:48:43.641Z,100668.59
2023-05-14T13:52:44.975Z,100664.59
2023-05-14T13:56:46.301Z,100656.63
2023-05-14T14:00:47.596Z,100640.50
2023-05-14T14:04:49.427Z,100635.88
2023-05-14T14:08:50.935Z,100648.06
2023-05-14T14:12:52.669Z,100636.19
2023-05-14T14:16:54.045Z,100623.16
2023-05-14T14:20:55.488Z,100626.09
2023-05-14T14:24:56.851Z,100623.25
2023-05-14T14:28:58.619Z,100625.44
2023-05-14T14:33:01.260Z,100619.25
2023-05-14T14:37:02.857Z,100613.78
2023-05-14T14:41:04.342Z,100626.16
2023-05-14T14:45:06.479Z,100620.88
2023-05-14T14:49:07.852Z,100614.81
2023-05-14T14:53:09.450Z,100611.09
2023-05-14T14:57:10.783Z,100601.69
2023-05-14T15:01:12.219Z,100591.50
2023-05-14T15:05:13.582Z,100596.25
2023-05-14T15:09:14.942Z,100596.06
2023-05-14T15:13:16.290Z,100596.06
2023-05-14T15:17:17.687Z,100601.72
2023-05-14T15:21:19.106Z,100594.25
2023-05-14T15:25:21.205Z,100603.63
2023-05-14T15:29:22.699Z,100598.91
2023-05-14T15:33:24.021Z,100592.41
2023-05-14T15:37:26.645Z,100588.16
2023-05-14T15:41:28.744Z,100587.00
2023-05-14T15:45:30.250Z,100588.66
2023-05-14T15:49:31.641Z,100587.28
2023-05-14T15:53:33.320Z,100584.91
2023-05-14T15:57:34.943Z,100576.81
2023-05-14T16:01:36.324Z,100584.16
2023-05-14T16:05:37.793Z,100592.03
2023-05-14T16:09:39.414Z,100576.31
2023-05-14T16:13:41.598Z,100575.06
2023-05-14T16:17:43.130Z,100586.56
2023-05-14T16:21:44.796Z,100584.13
2023-05-14T16:25:46.294Z,100576.53
2023-05-14T16:29:47.981Z,100586.63
2023-05-14T16:33:49.362Z,100584.69
2023-05-14T16:37:50.845Z,100583.34
2023-05-14T16:41:52.197Z,100580.53
2023-05-14T16:45:53.624Z,100580.81
2023-05-14T16:49:55.213Z,100577.47
2023-05-14T16:53:56.637Z,100578.75
2023-05-14T16:57:57.979Z,100581.00
2023-05-14T17:01:59.449Z,100585.72
2023-05-14T17:06:01.010Z,100586.28
2023-05-14T17:10:02.429Z,100593.63
2023-05-14T17:14:03.984Z,100590.19
2023-05-14T17:18:05.584Z,100587.94
2023-05-14T17:22:07.226Z,100591.91
2023-05-14T17:26:08.788Z,100594.53
2023-05-14T17:30:10.668Z,100601.16
2023-05-14T17:34:11.981Z,100588.78
2023-05-14T17:38:13.650Z,100591.69
2023-05-14T17:42:15.158Z,100596.03
2023-05-14T17:46:16.621Z,100601.03
2023-05-14T17:50:18.849Z,100599.94
2023-05-14T17:54:20.354Z,100597.13
2023-05-14T17:58:21.717Z,100603.38
2023-05-14T18:02:23.093Z,100612.84
2023-05-14T18:06:24.634Z,100622.00
2023-05-14T18:10:26.416Z,100621.25
2023-05-14T18:14:27.730Z,100620.50
2023-05-14T18:18:29.187Z,100636.63
2023-05-14T18:22:30.612Z,100628.09
2023-05-14T18:26:34.192Z,100629.34
2023-05-14T18:30:35.887Z,100627.00
2023-05-14T18:34:37.236Z,100630.78
2023-05-14T18:38:38.839Z,100627.38
2023-05-14T18:42:48.500Z,100635.53
2023-05-14T18:46:50.231Z,100636.69
2023-05-14T18:50:51.848Z,100631.25
2023-05-14T18:54:56.909Z,100637.75
2023-05-14T18:58:58.225Z,100646.72
2023-05-14T19:02:59.614Z,100643.19
2023-05-14T19:07:01.042Z,100645.06
2023-05-14T19:11:02.416Z,100652.00
2023-05-14T19:15:04.497Z,100643.38
2023-05-14T19:19:05.867Z,100646.50
2023-05-14T19:23:07.435Z,100652.84
2023-05-14T19:27:09.094Z,100656.59
2023-05-14T19:31:10.926Z,100658.28
2023-05-14T19:35:12.421Z,100670.88
2023-05-14T19:39:13.808Z,100667.63
2023-05-14T19:43:15.183Z,100673.19
2023-05-14T19:47:18.242Z,100674.06
2023-05-14T19:51:19.737Z,100668.50
2023-05-14T19:55:21.081Z,100676.88
2023-05-14T19:59:22.410Z,100680.44
2023-05-14T20:03:27.000Z,100685.56
2023-05-14T20:07:29.383Z,100688.94
2023-05-14T20:11:30.793Z,100688.41
2023-05-14T20:15:32.195Z,100688.53
2023-05-14T20:19:33.751Z,100694.53
2023-05-14T20:23:35.163Z,100691.44
2023-05-14T20:27:36.689Z,100688.50
2023-05-14T20:31:38.023Z,100678.13
2023-05-14T20:35:41.425Z,100671.66
2023-05-14T20:39:44.118Z,100680.56
2023-05-14T20:43:45.434Z,100675.88
2023-05-14T20:47:46.805Z,100675.16
2023-05-14T20:51:48.247Z,100675.53
2023-05-14T20:55:49.679Z,100685.03
2023-05-14T20:59:51.028Z,100683.69
2023-05-14T21:03:52.476Z,100677.00
2023-05-14T21:07:53.963Z,100674.97
2023-05-14T21:11:55.413Z,100675.38
2023-05-14T21:15:56.868Z,100676.78
2023-05-14T21:19:58.294Z,100673.91
2023-05-14T21:23:59.631Z,100674.47
2023-05-14T21:28:00.887Z,100664.81
2023-05-14T21:32:02.321Z,100656.50
2023-05-14T21:36:04.097Z,100656.81
2023-05-14T21:40:09.219Z,100653.97
2023-05-14T21:44:10.483Z,100660.81
2023-05-14T21:48:11.964Z,100656.91
2023-05-14T21:52:13.454Z,100651.91
2023-05-14T21:56:15.310Z,100661.00
2023-05-14T22:00:23.021Z,100651.66
2023-05-14T22:04:24.301Z,100654.28
2023-05-14T22:08:27.101Z,100651.16
2023-05-14T22:12:28.567Z,100646.34
2023-05-14T22:16:29.934Z,100647.16
2023-05-14T22:20:31.386Z,100649.56
2023-05-14T22:24:32.679Z,100643.16
2023-05-14T22:28:34.061Z,100647.22
2023-05-14T22:32:35.532Z,100642.66
2023-05-14T22:36:37.064Z,100641.44
2023-05-14T22:40:38.421Z,100639.03
2023-05-14T22:44:39.775Z,100628.94
2023-05-14T22:48:41.146Z,100619.28
2023-05-14T22:52:42.486Z,100618.63
2023-05-14T22:56:43.839Z,100615.88
2023-05-14T23:00:45.239Z,100612.78
2023-05-14T23:04:46.661Z,100608.78
2023-05-14T23:08:48.184Z,100610.78
2023-05-14T23:12:49.511Z,100608.75
2023-05-14T23:16:50.953Z,100604.34
2023-05-14T23:20:52.347Z,100599.91
2023-05-14T23:24:53.721Z,100597.44
2023-05-14T23:28:55.183Z,100600.66
2023-05-14T23:32:56.620Z,100602.31
2023-05-14T23:36:57.968Z,100597.84
2023-05-14T23:40:59.324Z,100602.09
2023-05-14T23:45:00.649Z,100599.50
2023-05-14T23:49:02.028Z,100586.69
2023-05-14T23:53:03.824Z,100588.47
2023-05-14T23:57:05.480Z,100592.28
